HISTORICAL SENSOR DATA

Sensor Data Report

DB LIVE
CURRENT TIME--:--:--
DEVICE NETWORK Gateway Status
13 ESP · realtime ~1s · history 60s
Weather WS-MOD-01
ONLINE
Actuator ACT-MOD-01
OFFLINE
Mainboard L3 MB-L3-01
ONLINE
Mainboard L5 MB-L5-01
ONLINE
Remote AC AC-REMOTE-01
ONLINE
PZEM L3-01 PWR-L3-01
OFFLINE
PZEM L3-02 PWR-L3-02
OFFLINE
PZEM L3-03 PWR-L3-03
OFFLINE
PZEM L3-04 PWR-L3-04
OFFLINE
PZEM L5-01 PWR-L5-01
ONLINE
PZEM L5-02 PWR-L5-02
ONLINE
PZEM L5-03 PWR-L5-03
OFFLINE
PZEM L5-04 PWR-L5-04
OFFLINE
REPORT FILTER

Periode & Sensor

DATABASE HISTORY
RESET
QUICK RANGE Hari ini 7 hari 30 hari
PERIODE09 Aug 2026sampai 07 Sep 2026
TOTAL DATA92,706sensor readings
MINIMUM-0.50sesuai filter
AVERAGE71.64sesuai filter
MAXIMUM32,564.20sesuai filter
REPORT RESULT

Data Sensor

09/08/2026 — 07/09/2026 EXPORT CSV
NOTANGGALWAKTUDEVICECHANNELSENSORVALUEUNIT
701 07/09/2026 05:58:00 WS-MOD-01Weather Station Module WS-PRES Tekanan Udara 911.00 hPa
702 07/09/2026 05:58:00 MB-L5-01Mainboard Lantai 5 L5-AI-04 Analog Input 4 3.05 V
703 07/09/2026 05:58:00 PWR-L5-01Power Meter L5 PZEM 01 PZEM-L5-01-ENERGY PZEM L5-01 Energy 0.12 kWh
704 07/09/2026 05:58:00 AC-REMOTE-01Remote AC AC-POWER AC Power State 1.00 state
705 07/09/2026 05:58:00 AC-REMOTE-01Remote AC AC-MODE AC Operating Mode 1.00 code
706 07/09/2026 05:58:00 MB-L5-01Mainboard Lantai 5 L5-ST-02 Surface Temperature 2 21.70 °C
707 07/09/2026 05:58:00 MB-L5-01Mainboard Lantai 5 L5-ST-01 Surface Temperature 1 22.40 °C
708 07/09/2026 05:58:00 MB-L3-01Mainboard Lantai 3 L3-AI-06 Analog Input 6 3.12 V
709 07/09/2026 05:58:00 MB-L5-01Mainboard Lantai 5 L5-LUX-01 Illuminance / LUX 1 43.10 lux
710 07/09/2026 05:58:00 PWR-L5-02Power Meter L5 PZEM 02 PZEM-L5-02-POWER PZEM L5-02 Active Power 0.00 W
711 07/09/2026 05:58:00 MB-L5-01Mainboard Lantai 5 L5-AI-05 Analog Input 5 3.05 V
712 07/09/2026 05:58:00 MB-L5-01Mainboard Lantai 5 L5-BGT-01 Black Globe Temperature 1 25.80 °C
713 07/09/2026 05:58:00 MB-L5-01Mainboard Lantai 5 L5-SHT-02-T SHT20 2 Temperature 28.20 °C
714 07/09/2026 05:58:00 WS-MOD-01Weather Station Module WS-TEMP Suhu Udara 18.20 °C
715 07/09/2026 05:58:00 MB-L5-01Mainboard Lantai 5 L5-HFT-01 Heat Flow Temperature 1 22.20 °C
716 07/09/2026 05:58:00 PWR-L5-01Power Meter L5 PZEM 01 PZEM-L5-01-POWER PZEM L5-01 Active Power 10.00 W
717 07/09/2026 05:58:00 MB-L3-01Mainboard Lantai 3 L3-SHT-03-T SHT20 3 Temperature 28.20 °C
718 07/09/2026 05:58:00 MB-L5-01Mainboard Lantai 5 L5-AI-06 Analog Input 6 3.05 V
719 07/09/2026 05:58:00 MB-L3-01Mainboard Lantai 3 L3-RAD-01 Radiation 1 1.00 W/m²
720 07/09/2026 05:58:00 MB-L3-01Mainboard Lantai 3 L3-LUX-05 Illuminance / LUX 5 189.90 lux
721 07/09/2026 05:58:00 MB-L5-01Mainboard Lantai 5 L5-BGT-02 Black Globe Temperature 2 25.80 °C
722 07/09/2026 05:58:00 PWR-L5-02Power Meter L5 PZEM 02 PZEM-L5-02-VOLT PZEM L5-02 Voltage 224.20 V
723 07/09/2026 05:58:00 MB-L5-01Mainboard Lantai 5 L5-HFT-02 Heat Flow Temperature 2 21.50 °C
724 07/09/2026 05:58:00 PWR-L5-01Power Meter L5 PZEM 01 PZEM-L5-01-CURR PZEM L5-01 Current 0.12 A
725 07/09/2026 05:58:00 MB-L5-01Mainboard Lantai 5 L5-BGT-03 Black Globe Temperature 3 25.50 °C
726 07/09/2026 05:58:00 MB-L5-01Mainboard Lantai 5 L5-SHT-01-RH SHT20 1 Humidity 47.70 %RH
727 07/09/2026 05:58:00 MB-L5-01Mainboard Lantai 5 L5-SHT-03-RH SHT20 3 Humidity 47.20 %RH
728 07/09/2026 05:58:00 MB-L5-01Mainboard Lantai 5 L5-RAD-01 Radiation 1 1.00 W/m²
729 07/09/2026 05:58:00 WS-MOD-01Weather Station Module WS-DIR Arah Angin 78.30 °
730 07/09/2026 05:58:00 MB-L3-01Mainboard Lantai 3 L3-SHT-03-RH SHT20 3 Humidity 46.50 %RH
731 07/09/2026 05:58:00 PWR-L5-01Power Meter L5 PZEM 01 PZEM-L5-01-VOLT PZEM L5-01 Voltage 224.30 V
732 07/09/2026 05:58:00 PWR-L5-02Power Meter L5 PZEM 02 PZEM-L5-02-PF PZEM L5-02 Power Factor 0.00
733 07/09/2026 05:58:00 MB-L3-01Mainboard Lantai 3 L3-RAD-02 Radiation 2 1.00 W/m²
734 07/09/2026 05:58:00 MB-L3-01Mainboard Lantai 3 L3-LUX-03 Illuminance / LUX 3 64.10 lux
735 07/09/2026 05:58:00 MB-L3-01Mainboard Lantai 3 L3-AI-01 Analog Input 1 3.12 V
736 07/09/2026 05:58:00 MB-L3-01Mainboard Lantai 3 L3-SHT-01-T SHT20 1 Temperature 27.60 °C
737 07/09/2026 05:58:00 PWR-L5-02Power Meter L5 PZEM 02 PZEM-L5-02-ENERGY PZEM L5-02 Energy 0.04 kWh
738 07/09/2026 05:58:00 MB-L5-01Mainboard Lantai 5 L5-LUX-06 Illuminance / LUX 6 72.70 lux
739 07/09/2026 05:58:00 MB-L5-01Mainboard Lantai 5 L5-LUX-02 Illuminance / LUX 2 203.20 lux
740 07/09/2026 05:58:00 AC-REMOTE-01Remote AC AC-SETPOINT AC Set Temperature 23.00 °C
741 07/09/2026 05:58:00 AC-REMOTE-01Remote AC AC-FAN AC Fan Speed 0.00 code
742 07/09/2026 05:57:00 PWR-L5-01Power Meter L5 PZEM 01 PZEM-L5-01-PF PZEM L5-01 Power Factor 0.39
743 07/09/2026 05:57:00 MB-L5-01Mainboard Lantai 5 L5-AI-02 Analog Input 2 3.05 V
744 07/09/2026 05:57:00 MB-L3-01Mainboard Lantai 3 L3-AI-04 Analog Input 4 3.12 V
745 07/09/2026 05:57:00 MB-L3-01Mainboard Lantai 3 L3-LUX-02 Illuminance / LUX 2 55.70 lux
746 07/09/2026 05:57:00 MB-L3-01Mainboard Lantai 3 L3-LUX-01 Illuminance / LUX 1 34.60 lux
747 07/09/2026 05:57:00 MB-L5-01Mainboard Lantai 5 L5-AI-03 Analog Input 3 3.05 V
748 07/09/2026 05:57:00 MB-L5-01Mainboard Lantai 5 L5-LUX-04 Illuminance / LUX 4 37.00 lux
749 07/09/2026 05:57:00 PWR-L5-01Power Meter L5 PZEM 01 PZEM-L5-01-FREQ PZEM L5-01 Frequency 50.00 Hz
750 07/09/2026 05:57:00 MB-L5-01Mainboard Lantai 5 L5-SHT-02-RH SHT20 2 Humidity 46.80 %RH
751 07/09/2026 05:57:00 MB-L3-01Mainboard Lantai 3 L3-SHT-02-RH SHT20 2 Humidity 46.60 %RH
752 07/09/2026 05:57:00 MB-L5-01Mainboard Lantai 5 L5-LUX-03 Illuminance / LUX 3 63.80 lux
753 07/09/2026 05:57:00 MB-L3-01Mainboard Lantai 3 L3-SHT-02-T SHT20 2 Temperature 27.90 °C
754 07/09/2026 05:57:00 MB-L3-01Mainboard Lantai 3 L3-SHT-01-RH SHT20 1 Humidity 47.50 %RH
755 07/09/2026 05:57:00 MB-L3-01Mainboard Lantai 3 L3-AI-05 Analog Input 5 3.12 V
756 07/09/2026 05:57:00 MB-L5-01Mainboard Lantai 5 L5-RAD-02 Radiation 2 1.00 W/m²
757 07/09/2026 05:57:00 PWR-L5-02Power Meter L5 PZEM 02 PZEM-L5-02-FREQ PZEM L5-02 Frequency 50.00 Hz
758 07/09/2026 05:57:00 WS-MOD-01Weather Station Module WS-PRES Tekanan Udara 911.00 hPa
759 07/09/2026 05:57:00 MB-L5-01Mainboard Lantai 5 L5-AI-04 Analog Input 4 3.05 V
760 07/09/2026 05:57:00 PWR-L5-01Power Meter L5 PZEM 01 PZEM-L5-01-ENERGY PZEM L5-01 Energy 0.12 kWh
761 07/09/2026 05:57:00 AC-REMOTE-01Remote AC AC-POWER AC Power State 1.00 state
762 07/09/2026 05:57:00 AC-REMOTE-01Remote AC AC-MODE AC Operating Mode 1.00 code
763 07/09/2026 05:57:00 MB-L5-01Mainboard Lantai 5 L5-ST-02 Surface Temperature 2 21.80 °C
764 07/09/2026 05:57:00 MB-L5-01Mainboard Lantai 5 L5-ST-01 Surface Temperature 1 22.50 °C
765 07/09/2026 05:57:00 MB-L3-01Mainboard Lantai 3 L3-AI-06 Analog Input 6 3.12 V
766 07/09/2026 05:57:00 MB-L5-01Mainboard Lantai 5 L5-LUX-01 Illuminance / LUX 1 39.60 lux
767 07/09/2026 05:57:00 PWR-L5-02Power Meter L5 PZEM 02 PZEM-L5-02-POWER PZEM L5-02 Active Power 0.00 W
768 07/09/2026 05:57:00 MB-L5-01Mainboard Lantai 5 L5-AI-05 Analog Input 5 3.05 V
769 07/09/2026 05:57:00 MB-L5-01Mainboard Lantai 5 L5-BGT-01 Black Globe Temperature 1 25.90 °C
770 07/09/2026 05:57:00 MB-L5-01Mainboard Lantai 5 L5-SHT-02-T SHT20 2 Temperature 28.20 °C
771 07/09/2026 05:57:00 WS-MOD-01Weather Station Module WS-TEMP Suhu Udara 18.20 °C
772 07/09/2026 05:57:00 MB-L5-01Mainboard Lantai 5 L5-HFT-01 Heat Flow Temperature 1 22.20 °C
773 07/09/2026 05:57:00 PWR-L5-01Power Meter L5 PZEM 01 PZEM-L5-01-POWER PZEM L5-01 Active Power 10.40 W
774 07/09/2026 05:57:00 MB-L3-01Mainboard Lantai 3 L3-SHT-03-T SHT20 3 Temperature 28.20 °C
775 07/09/2026 05:57:00 MB-L5-01Mainboard Lantai 5 L5-AI-06 Analog Input 6 3.05 V
776 07/09/2026 05:57:00 MB-L3-01Mainboard Lantai 3 L3-RAD-01 Radiation 1 1.00 W/m²
777 07/09/2026 05:57:00 MB-L3-01Mainboard Lantai 3 L3-LUX-05 Illuminance / LUX 5 174.50 lux
778 07/09/2026 05:57:00 MB-L5-01Mainboard Lantai 5 L5-BGT-02 Black Globe Temperature 2 25.80 °C
779 07/09/2026 05:57:00 PWR-L5-02Power Meter L5 PZEM 02 PZEM-L5-02-VOLT PZEM L5-02 Voltage 224.20 V
780 07/09/2026 05:57:00 MB-L5-01Mainboard Lantai 5 L5-HFT-02 Heat Flow Temperature 2 21.40 °C
781 07/09/2026 05:57:00 PWR-L5-01Power Meter L5 PZEM 01 PZEM-L5-01-CURR PZEM L5-01 Current 0.12 A
782 07/09/2026 05:57:00 MB-L5-01Mainboard Lantai 5 L5-BGT-03 Black Globe Temperature 3 25.60 °C
783 07/09/2026 05:57:00 MB-L5-01Mainboard Lantai 5 L5-SHT-01-RH SHT20 1 Humidity 47.70 %RH
784 07/09/2026 05:57:00 MB-L5-01Mainboard Lantai 5 L5-SHT-03-RH SHT20 3 Humidity 47.30 %RH
785 07/09/2026 05:57:00 MB-L5-01Mainboard Lantai 5 L5-RAD-01 Radiation 1 1.00 W/m²
786 07/09/2026 05:57:00 WS-MOD-01Weather Station Module WS-DIR Arah Angin 80.10 °
787 07/09/2026 05:57:00 MB-L3-01Mainboard Lantai 3 L3-SHT-03-RH SHT20 3 Humidity 46.40 %RH
788 07/09/2026 05:57:00 PWR-L5-01Power Meter L5 PZEM 01 PZEM-L5-01-VOLT PZEM L5-01 Voltage 224.30 V
789 07/09/2026 05:57:00 PWR-L5-02Power Meter L5 PZEM 02 PZEM-L5-02-PF PZEM L5-02 Power Factor 0.00
790 07/09/2026 05:57:00 MB-L3-01Mainboard Lantai 3 L3-RAD-02 Radiation 2 1.00 W/m²
791 07/09/2026 05:57:00 MB-L3-01Mainboard Lantai 3 L3-LUX-03 Illuminance / LUX 3 59.00 lux
792 07/09/2026 05:57:00 MB-L3-01Mainboard Lantai 3 L3-AI-01 Analog Input 1 3.12 V
793 07/09/2026 05:57:00 MB-L3-01Mainboard Lantai 3 L3-SHT-01-T SHT20 1 Temperature 27.80 °C
794 07/09/2026 05:57:00 PWR-L5-02Power Meter L5 PZEM 02 PZEM-L5-02-ENERGY PZEM L5-02 Energy 0.04 kWh
795 07/09/2026 05:57:00 MB-L5-01Mainboard Lantai 5 L5-LUX-06 Illuminance / LUX 6 67.30 lux
796 07/09/2026 05:57:00 MB-L5-01Mainboard Lantai 5 L5-LUX-02 Illuminance / LUX 2 187.30 lux
797 07/09/2026 05:57:00 AC-REMOTE-01Remote AC AC-SETPOINT AC Set Temperature 23.00 °C
798 07/09/2026 05:57:00 AC-REMOTE-01Remote AC AC-FAN AC Fan Speed 0.00 code
799 07/09/2026 05:57:00 WS-MOD-01Weather Station Module WS-RH Kelembapan Udara 81.20 %RH
800 07/09/2026 05:57:00 MB-L3-01Mainboard Lantai 3 L3-AI-02 Analog Input 2 3.12 V
Menampilkan maksimal 100 data per halaman